sensor_id;sensor_type;location;lat;lon;timestamp;P1;durP1;ratioP1;P2;durP2;ratioP2
26335;SDS011;14047;50.936;4.654;2023-12-28T00:00:10;3.92;;;1.75;;
26335;SDS011;14047;50.936;4.654;2023-12-28T00:02:37;3.72;;;2.08;;
26335;SDS011;14047;50.936;4.654;2023-12-28T00:05:03;3.80;;;1.55;;
26335;SDS011;14047;50.936;4.654;2023-12-28T00:07:29;2.75;;;1.65;;
26335;SDS011;14047;50.936;4.654;2023-12-28T00:09:55;2.28;;;1.50;;
26335;SDS011;14047;50.936;4.654;2023-12-28T00:12:21;6.00;;;1.88;;
26335;SDS011;14047;50.936;4.654;2023-12-28T00:14:48;3.75;;;1.83;;
26335;SDS011;14047;50.936;4.654;2023-12-28T00:17:14;5.13;;;1.63;;
26335;SDS011;14047;50.936;4.654;2023-12-28T00:19:40;3.15;;;1.58;;
26335;SDS011;14047;50.936;4.654;2023-12-28T00:22:05;3.78;;;1.83;;
26335;SDS011;14047;50.936;4.654;2023-12-28T00:24:31;4.00;;;1.98;;
26335;SDS011;14047;50.936;4.654;2023-12-28T00:26:57;5.13;;;2.00;;
26335;SDS011;14047;50.936;4.654;2023-12-28T00:29:23;5.57;;;1.60;;
26335;SDS011;14047;50.936;4.654;2023-12-28T00:31:49;2.25;;;1.50;;
26335;SDS011;14047;50.936;4.654;2023-12-28T00:34:16;2.92;;;1.70;;
26335;SDS011;14047;50.936;4.654;2023-12-28T00:36:41;6.78;;;1.75;;
26335;SDS011;14047;50.936;4.654;2023-12-28T00:39:07;2.85;;;1.27;;
26335;SDS011;14047;50.936;4.654;2023-12-28T00:41:33;5.47;;;1.95;;
26335;SDS011;14047;50.936;4.654;2023-12-28T00:43:59;3.20;;;1.48;;
26335;SDS011;14047;50.936;4.654;2023-12-28T00:46:27;3.22;;;1.75;;
26335;SDS011;14047;50.936;4.654;2023-12-28T00:48:53;4.35;;;1.73;;
26335;SDS011;14047;50.936;4.654;2023-12-28T00:51:19;3.00;;;1.63;;
26335;SDS011;14047;50.936;4.654;2023-12-28T00:53:47;5.93;;;1.65;;
26335;SDS011;14047;50.936;4.654;2023-12-28T00:56:13;5.18;;;1.70;;
26335;SDS011;14047;50.936;4.654;2023-12-28T00:58:39;6.25;;;2.15;;
26335;SDS011;14047;50.936;4.654;2023-12-28T01:01:06;3.03;;;1.50;;
26335;SDS011;14047;50.936;4.654;2023-12-28T01:03:32;3.22;;;1.75;;
26335;SDS011;14047;50.936;4.654;2023-12-28T01:05:58;3.22;;;1.90;;
26335;SDS011;14047;50.936;4.654;2023-12-28T01:08:23;4.15;;;2.05;;
26335;SDS011;14047;50.936;4.654;2023-12-28T01:10:49;4.05;;;2.13;;
26335;SDS011;14047;50.936;4.654;2023-12-28T01:13:15;3.75;;;1.88;;
26335;SDS011;14047;50.936;4.654;2023-12-28T01:15:41;6.05;;;1.88;;
26335;SDS011;14047;50.936;4.654;2023-12-28T01:18:07;6.63;;;2.33;;
26335;SDS011;14047;50.936;4.654;2023-12-28T01:20:33;7.45;;;2.22;;
26335;SDS011;14047;50.936;4.654;2023-12-28T01:23:00;3.63;;;1.85;;
26335;SDS011;14047;50.936;4.654;2023-12-28T01:25:26;6.13;;;1.75;;
26335;SDS011;14047;50.936;4.654;2023-12-28T01:27:52;2.90;;;1.85;;
26335;SDS011;14047;50.936;4.654;2023-12-28T01:30:18;3.22;;;1.80;;
26335;SDS011;14047;50.936;4.654;2023-12-28T01:32:44;3.33;;;1.92;;
26335;SDS011;14047;50.936;4.654;2023-12-28T01:35:10;3.60;;;1.70;;
26335;SDS011;14047;50.936;4.654;2023-12-28T01:37:35;6.07;;;1.73;;
26335;SDS011;14047;50.936;4.654;2023-12-28T01:40:02;4.35;;;1.92;;
26335;SDS011;14047;50.936;4.654;2023-12-28T01:42:29;6.53;;;2.05;;
26335;SDS011;14047;50.936;4.654;2023-12-28T01:44:58;8.23;;;2.42;;
26335;SDS011;14047;50.936;4.654;2023-12-28T01:47:25;7.38;;;1.90;;
26335;SDS011;14047;50.936;4.654;2023-12-28T01:49:51;2.95;;;1.70;;
26335;SDS011;14047;50.936;4.654;2023-12-28T01:52:19;4.43;;;1.80;;
26335;SDS011;14047;50.936;4.654;2023-12-28T01:54:45;6.32;;;2.45;;
26335;SDS011;14047;50.936;4.654;2023-12-28T01:57:13;4.50;;;1.65;;
26335;SDS011;14047;50.936;4.654;2023-12-28T01:59:39;8.25;;;1.70;;
26335;SDS011;14047;50.936;4.654;2023-12-28T02:02:06;4.85;;;1.98;;
26335;SDS011;14047;50.936;4.654;2023-12-28T02:04:32;6.90;;;2.65;;
26335;SDS011;14047;50.936;4.654;2023-12-28T02:06:59;3.67;;;1.35;;
26335;SDS011;14047;50.936;4.654;2023-12-28T02:09:25;3.33;;;1.50;;
26335;SDS011;14047;50.936;4.654;2023-12-28T02:11:52;5.35;;;1.80;;
26335;SDS011;14047;50.936;4.654;2023-12-28T02:14:18;5.22;;;1.50;;
26335;SDS011;14047;50.936;4.654;2023-12-28T02:16:49;4.15;;;1.80;;
26335;SDS011;14047;50.936;4.654;2023-12-28T02:19:54;2.00;;;1.50;;
26335;SDS011;14047;50.936;4.654;2023-12-28T02:22:23;4.78;;;1.38;;
26335;SDS011;14047;50.936;4.654;2023-12-28T02:27:39;3.33;;;1.80;;
26335;SDS011;14047;50.936;4.654;2023-12-28T02:30:07;11.55;;;2.13;;
26335;SDS011;14047;50.936;4.654;2023-12-28T02:37:47;7.68;;;1.75;;
26335;SDS011;14047;50.936;4.654;2023-12-28T02:40:16;3.20;;;1.90;;
26335;SDS011;14047;50.936;4.654;2023-12-28T02:42:42;5.53;;;1.63;;
26335;SDS011;14047;50.936;4.654;2023-12-28T02:45:08;4.82;;;1.60;;
26335;SDS011;14047;50.936;4.654;2023-12-28T02:47:35;3.45;;;1.73;;
26335;SDS011;14047;50.936;4.654;2023-12-28T02:50:00;4.90;;;1.45;;
26335;SDS011;14047;50.936;4.654;2023-12-28T02:52:27;6.40;;;1.92;;
26335;SDS011;14047;50.936;4.654;2023-12-28T02:54:53;3.63;;;1.20;;
26335;SDS011;14047;50.936;4.654;2023-12-28T02:57:19;5.28;;;1.60;;
26335;SDS011;14047;50.936;4.654;2023-12-28T02:59:45;3.40;;;1.42;;
26335;SDS011;14047;50.936;4.654;2023-12-28T03:02:11;3.80;;;1.73;;
26335;SDS011;14047;50.936;4.654;2023-12-28T03:04:37;4.25;;;1.65;;
26335;SDS011;14047;50.936;4.654;2023-12-28T03:07:03;6.55;;;1.92;;
26335;SDS011;14047;50.936;4.654;2023-12-28T03:09:30;4.05;;;1.63;;
26335;SDS011;14047;50.936;4.654;2023-12-28T03:11:56;5.88;;;1.70;;
26335;SDS011;14047;50.936;4.654;2023-12-28T03:14:22;2.83;;;1.33;;
26335;SDS011;14047;50.936;4.654;2023-12-28T03:16:48;3.67;;;1.63;;
26335;SDS011;14047;50.936;4.654;2023-12-28T03:19:14;4.35;;;1.15;;
26335;SDS011;14047;50.936;4.654;2023-12-28T03:21:40;5.47;;;1.30;;
26335;SDS011;14047;50.936;4.654;2023-12-28T03:24:06;4.22;;;1.50;;
26335;SDS011;14047;50.936;4.654;2023-12-28T03:26:32;5.80;;;1.83;;
26335;SDS011;14047;50.936;4.654;2023-12-28T03:29:02;4.15;;;1.38;;
26335;SDS011;14047;50.936;4.654;2023-12-28T03:31:27;3.20;;;1.65;;
26335;SDS011;14047;50.936;4.654;2023-12-28T03:33:54;4.05;;;1.45;;
26335;SDS011;14047;50.936;4.654;2023-12-28T03:36:20;5.45;;;1.73;;
26335;SDS011;14047;50.936;4.654;2023-12-28T03:38:46;3.97;;;1.10;;
26335;SDS011;14047;50.936;4.654;2023-12-28T03:41:16;5.60;;;1.40;;
26335;SDS011;14047;50.936;4.654;2023-12-28T03:43:45;5.18;;;1.35;;
26335;SDS011;14047;50.936;4.654;2023-12-28T03:46:11;6.85;;;1.50;;
26335;SDS011;14047;50.936;4.654;2023-12-28T03:48:37;7.72;;;1.60;;
26335;SDS011;14047;50.936;4.654;2023-12-28T03:51:05;5.63;;;1.30;;
26335;SDS011;14047;50.936;4.654;2023-12-28T03:53:31;3.47;;;1.40;;
26335;SDS011;14047;50.936;4.654;2023-12-28T03:56:00;7.72;;;2.22;;
26335;SDS011;14047;50.936;4.654;2023-12-28T03:58:26;8.25;;;1.58;;
26335;SDS011;14047;50.936;4.654;2023-12-28T04:00:52;9.65;;;1.17;;
26335;SDS011;14047;50.936;4.654;2023-12-28T04:03:18;4.63;;;1.20;;
26335;SDS011;14047;50.936;4.654;2023-12-28T04:05:44;10.57;;;1.38;;
26335;SDS011;14047;50.936;4.654;2023-12-28T04:08:10;9.35;;;1.75;;
26335;SDS011;14047;50.936;4.654;2023-12-28T04:10:36;4.72;;;1.30;;
26335;SDS011;14047;50.936;4.654;2023-12-28T04:13:04;5.65;;;1.33;;
26335;SDS011;14047;50.936;4.654;2023-12-28T04:15:30;6.13;;;1.55;;
26335;SDS011;14047;50.936;4.654;2023-12-28T04:17:56;9.18;;;1.52;;
26335;SDS011;14047;50.936;4.654;2023-12-28T04:20:23;13.38;;;2.45;;
26335;SDS011;14047;50.936;4.654;2023-12-28T04:22:49;2.88;;;1.15;;
26335;SDS011;14047;50.936;4.654;2023-12-28T04:25:16;7.55;;;1.88;;
26335;SDS011;14047;50.936;4.654;2023-12-28T04:27:42;7.25;;;1.35;;
26335;SDS011;14047;50.936;4.654;2023-12-28T04:30:11;7.97;;;1.33;;
26335;SDS011;14047;50.936;4.654;2023-12-28T04:32:37;10.68;;;2.08;;
26335;SDS011;14047;50.936;4.654;2023-12-28T04:35:04;6.47;;;1.77;;
26335;SDS011;14047;50.936;4.654;2023-12-28T04:37:31;8.18;;;1.40;;
26335;SDS011;14047;50.936;4.654;2023-12-28T04:39:58;10.90;;;1.67;;
26335;SDS011;14047;50.936;4.654;2023-12-28T04:42:24;3.22;;;1.33;;
26335;SDS011;14047;50.936;4.654;2023-12-28T04:44:50;9.18;;;1.35;;
26335;SDS011;14047;50.936;4.654;2023-12-28T04:47:16;8.32;;;1.90;;
26335;SDS011;14047;50.936;4.654;2023-12-28T04:49:42;7.25;;;1.08;;
26335;SDS011;14047;50.936;4.654;2023-12-28T04:52:07;5.00;;;0.98;;
26335;SDS011;14047;50.936;4.654;2023-12-28T04:54:33;8.60;;;1.58;;
26335;SDS011;14047;50.936;4.654;2023-12-28T04:56:59;6.90;;;1.67;;
26335;SDS011;14047;50.936;4.654;2023-12-28T04:59:25;9.43;;;2.20;;
26335;SDS011;14047;50.936;4.654;2023-12-28T05:01:51;7.75;;;1.42;;
26335;SDS011;14047;50.936;4.654;2023-12-28T05:04:17;8.25;;;1.35;;
26335;SDS011;14047;50.936;4.654;2023-12-28T05:06:43;7.28;;;1.33;;
26335;SDS011;14047;50.936;4.654;2023-12-28T05:09:09;8.10;;;1.42;;
26335;SDS011;14047;50.936;4.654;2023-12-28T05:11:35;9.80;;;1.33;;
26335;SDS011;14047;50.936;4.654;2023-12-28T05:14:00;2.47;;;0.70;;
26335;SDS011;14047;50.936;4.654;2023-12-28T05:16:26;4.88;;;1.27;;
26335;SDS011;14047;50.936;4.654;2023-12-28T05:18:52;6.72;;;1.80;;
26335;SDS011;14047;50.936;4.654;2023-12-28T05:21:18;7.32;;;1.48;;
26335;SDS011;14047;50.936;4.654;2023-12-28T05:23:44;9.43;;;2.03;;
26335;SDS011;14047;50.936;4.654;2023-12-28T05:26:10;12.80;;;1.75;;
26335;SDS011;14047;50.936;4.654;2023-12-28T05:28:37;4.47;;;1.38;;
26335;SDS011;14047;50.936;4.654;2023-12-28T05:31:02;9.10;;;1.92;;
26335;SDS011;14047;50.936;4.654;2023-12-28T05:33:29;10.85;;;1.70;;
26335;SDS011;14047;50.936;4.654;2023-12-28T05:35:55;22.25;;;3.03;;
26335;SDS011;14047;50.936;4.654;2023-12-28T05:38:21;13.93;;;1.85;;
26335;SDS011;14047;50.936;4.654;2023-12-28T05:40:46;8.88;;;1.63;;
26335;SDS011;14047;50.936;4.654;2023-12-28T05:43:13;8.80;;;2.90;;
26335;SDS011;14047;50.936;4.654;2023-12-28T05:45:38;7.28;;;1.05;;
26335;SDS011;14047;50.936;4.654;2023-12-28T05:48:04;6.28;;;1.38;;
26335;SDS011;14047;50.936;4.654;2023-12-28T05:50:30;8.32;;;1.65;;
26335;SDS011;14047;50.936;4.654;2023-12-28T05:52:56;12.95;;;1.73;;
26335;SDS011;14047;50.936;4.654;2023-12-28T05:55:22;6.60;;;1.48;;
26335;SDS011;14047;50.936;4.654;2023-12-28T05:57:48;9.20;;;1.92;;
26335;SDS011;14047;50.936;4.654;2023-12-28T06:00:14;8.52;;;1.50;;
26335;SDS011;14047;50.936;4.654;2023-12-28T06:02:41;9.73;;;1.63;;
26335;SDS011;14047;50.936;4.654;2023-12-28T06:05:07;5.68;;;1.50;;
26335;SDS011;14047;50.936;4.654;2023-12-28T06:07:33;11.43;;;1.85;;
26335;SDS011;14047;50.936;4.654;2023-12-28T06:09:59;9.75;;;1.25;;
26335;SDS011;14047;50.936;4.654;2023-12-28T06:12:25;9.65;;;1.58;;
26335;SDS011;14047;50.936;4.654;2023-12-28T06:14:51;12.48;;;1.80;;
26335;SDS011;14047;50.936;4.654;2023-12-28T06:17:17;12.45;;;2.15;;
26335;SDS011;14047;50.936;4.654;2023-12-28T06:19:44;12.40;;;2.03;;
26335;SDS011;14047;50.936;4.654;2023-12-28T06:22:10;6.88;;;2.00;;
26335;SDS011;14047;50.936;4.654;2023-12-28T06:24:39;9.27;;;1.50;;
26335;SDS011;14047;50.936;4.654;2023-12-28T06:27:05;14.80;;;1.65;;
26335;SDS011;14047;50.936;4.654;2023-12-28T06:29:31;13.43;;;2.33;;
26335;SDS011;14047;50.936;4.654;2023-12-28T06:31:57;11.93;;;2.00;;
26335;SDS011;14047;50.936;4.654;2023-12-28T06:34:23;6.72;;;1.50;;
26335;SDS011;14047;50.936;4.654;2023-12-28T06:36:49;10.23;;;1.65;;
26335;SDS011;14047;50.936;4.654;2023-12-28T06:39:15;12.13;;;1.80;;
26335;SDS011;14047;50.936;4.654;2023-12-28T06:41:41;9.52;;;2.00;;
26335;SDS011;14047;50.936;4.654;2023-12-28T06:44:07;10.93;;;2.45;;
26335;SDS011;14047;50.936;4.654;2023-12-28T06:46:34;7.50;;;1.15;;
26335;SDS011;14047;50.936;4.654;2023-12-28T06:49:00;12.65;;;2.05;;
26335;SDS011;14047;50.936;4.654;2023-12-28T06:51:26;16.75;;;2.13;;
26335;SDS011;14047;50.936;4.654;2023-12-28T06:53:51;17.55;;;2.15;;
26335;SDS011;14047;50.936;4.654;2023-12-28T06:56:17;15.40;;;2.67;;
26335;SDS011;14047;50.936;4.654;2023-12-28T06:58:43;10.75;;;2.00;;
26335;SDS011;14047;50.936;4.654;2023-12-28T07:01:09;11.02;;;1.70;;
26335;SDS011;14047;50.936;4.654;2023-12-28T07:03:36;8.73;;;1.65;;
26335;SDS011;14047;50.936;4.654;2023-12-28T07:06:02;13.98;;;1.88;;
26335;SDS011;14047;50.936;4.654;2023-12-28T07:08:28;9.07;;;2.00;;
26335;SDS011;14047;50.936;4.654;2023-12-28T07:10:54;5.68;;;1.33;;
26335;SDS011;14047;50.936;4.654;2023-12-28T07:13:20;17.38;;;2.15;;
26335;SDS011;14047;50.936;4.654;2023-12-28T07:15:46;11.23;;;1.98;;
26335;SDS011;14047;50.936;4.654;2023-12-28T07:18:12;17.00;;;2.05;;
26335;SDS011;14047;50.936;4.654;2023-12-28T07:20:38;7.18;;;1.80;;
26335;SDS011;14047;50.936;4.654;2023-12-28T07:23:03;10.18;;;1.75;;
26335;SDS011;14047;50.936;4.654;2023-12-28T07:25:29;13.77;;;2.17;;
26335;SDS011;14047;50.936;4.654;2023-12-28T07:27:55;11.10;;;1.50;;
26335;SDS011;14047;50.936;4.654;2023-12-28T07:30:21;8.77;;;1.83;;
26335;SDS011;14047;50.936;4.654;2023-12-28T07:32:47;8.60;;;2.83;;
26335;SDS011;14047;50.936;4.654;2023-12-28T07:35:13;13.73;;;2.15;;
26335;SDS011;14047;50.936;4.654;2023-12-28T07:37:39;17.15;;;2.75;;
26335;SDS011;14047;50.936;4.654;2023-12-28T07:40:05;13.73;;;2.15;;
26335;SDS011;14047;50.936;4.654;2023-12-28T07:42:31;16.50;;;2.72;;
26335;SDS011;14047;50.936;4.654;2023-12-28T07:44:57;12.65;;;2.28;;
26335;SDS011;14047;50.936;4.654;2023-12-28T07:47:23;11.38;;;1.70;;
26335;SDS011;14047;50.936;4.654;2023-12-28T07:49:49;14.65;;;2.80;;
26335;SDS011;14047;50.936;4.654;2023-12-28T07:52:15;14.02;;;2.40;;
26335;SDS011;14047;50.936;4.654;2023-12-28T07:54:41;14.38;;;2.42;;
26335;SDS011;14047;50.936;4.654;2023-12-28T07:57:07;14.80;;;2.40;;
26335;SDS011;14047;50.936;4.654;2023-12-28T07:59:33;22.98;;;2.30;;
26335;SDS011;14047;50.936;4.654;2023-12-28T08:02:01;13.32;;;1.98;;
26335;SDS011;14047;50.936;4.654;2023-12-28T08:04:27;11.93;;;2.40;;
26335;SDS011;14047;50.936;4.654;2023-12-28T08:06:53;20.25;;;2.83;;
26335;SDS011;14047;50.936;4.654;2023-12-28T08:09:18;12.77;;;2.28;;
26335;SDS011;14047;50.936;4.654;2023-12-28T08:11:44;11.60;;;1.80;;
26335;SDS011;14047;50.936;4.654;2023-12-28T08:14:11;20.92;;;2.28;;
26335;SDS011;14047;50.936;4.654;2023-12-28T08:16:36;7.60;;;1.95;;
26335;SDS011;14047;50.936;4.654;2023-12-28T08:19:02;8.50;;;1.60;;
26335;SDS011;14047;50.936;4.654;2023-12-28T08:21:28;6.60;;;1.70;;
26335;SDS011;14047;50.936;4.654;2023-12-28T08:23:54;10.27;;;2.00;;
26335;SDS011;14047;50.936;4.654;2023-12-28T08:26:20;14.18;;;1.83;;
26335;SDS011;14047;50.936;4.654;2023-12-28T08:28:46;11.95;;;2.33;;
26335;SDS011;14047;50.936;4.654;2023-12-28T08:31:12;12.00;;;2.25;;
26335;SDS011;14047;50.936;4.654;2023-12-28T08:33:39;11.25;;;1.70;;
26335;SDS011;14047;50.936;4.654;2023-12-28T08:36:05;17.05;;;2.70;;
26335;SDS011;14047;50.936;4.654;2023-12-28T08:38:32;11.52;;;2.33;;
26335;SDS011;14047;50.936;4.654;2023-12-28T08:40:58;13.82;;;2.63;;
26335;SDS011;14047;50.936;4.654;2023-12-28T08:43:24;12.73;;;1.98;;
26335;SDS011;14047;50.936;4.654;2023-12-28T08:45:50;9.80;;;1.98;;
26335;SDS011;14047;50.936;4.654;2023-12-28T08:48:16;14.25;;;2.45;;
26335;SDS011;14047;50.936;4.654;2023-12-28T08:50:42;13.98;;;1.55;;
26335;SDS011;14047;50.936;4.654;2023-12-28T08:53:08;16.52;;;1.70;;
26335;SDS011;14047;50.936;4.654;2023-12-28T08:55:33;19.00;;;1.83;;
26335;SDS011;14047;50.936;4.654;2023-12-28T08:57:59;6.53;;;1.65;;
26335;SDS011;14047;50.936;4.654;2023-12-28T09:00:25;10.38;;;2.20;;
26335;SDS011;14047;50.936;4.654;2023-12-28T09:02:51;9.35;;;2.42;;
26335;SDS011;14047;50.936;4.654;2023-12-28T09:05:17;13.50;;;1.75;;
26335;SDS011;14047;50.936;4.654;2023-12-28T09:07:43;14.13;;;2.13;;
26335;SDS011;14047;50.936;4.654;2023-12-28T09:10:10;9.82;;;1.92;;
26335;SDS011;14047;50.936;4.654;2023-12-28T09:12:36;6.15;;;1.15;;
26335;SDS011;14047;50.936;4.654;2023-12-28T09:15:06;9.88;;;1.65;;
26335;SDS011;14047;50.936;4.654;2023-12-28T09:17:33;11.02;;;1.80;;
26335;SDS011;14047;50.936;4.654;2023-12-28T09:20:00;13.77;;;1.83;;
26335;SDS011;14047;50.936;4.654;2023-12-28T09:22:27;10.73;;;1.85;;
26335;SDS011;14047;50.936;4.654;2023-12-28T09:24:53;9.57;;;1.83;;
26335;SDS011;14047;50.936;4.654;2023-12-28T09:27:19;9.68;;;1.63;;
26335;SDS011;14047;50.936;4.654;2023-12-28T09:29:44;17.15;;;1.95;;
26335;SDS011;14047;50.936;4.654;2023-12-28T09:32:11;7.65;;;1.63;;
26335;SDS011;14047;50.936;4.654;2023-12-28T09:34:37;11.93;;;2.92;;
26335;SDS011;14047;50.936;4.654;2023-12-28T09:37:03;10.88;;;2.63;;
26335;SDS011;14047;50.936;4.654;2023-12-28T09:39:29;8.65;;;2.03;;
26335;SDS011;14047;50.936;4.654;2023-12-28T09:41:55;13.45;;;1.65;;
26335;SDS011;14047;50.936;4.654;2023-12-28T09:44:26;12.88;;;2.33;;
26335;SDS011;14047;50.936;4.654;2023-12-28T09:46:56;10.35;;;1.90;;
26335;SDS011;14047;50.936;4.654;2023-12-28T09:49:23;15.45;;;2.10;;
26335;SDS011;14047;50.936;4.654;2023-12-28T09:51:49;10.35;;;2.22;;
26335;SDS011;14047;50.936;4.654;2023-12-28T09:54:15;10.60;;;1.73;;
26335;SDS011;14047;50.936;4.654;2023-12-28T09:56:42;13.10;;;2.15;;
26335;SDS011;14047;50.936;4.654;2023-12-28T09:59:08;11.18;;;1.77;;
26335;SDS011;14047;50.936;4.654;2023-12-28T10:01:35;15.70;;;2.97;;
26335;SDS011;14047;50.936;4.654;2023-12-28T10:04:01;16.08;;;2.25;;
26335;SDS011;14047;50.936;4.654;2023-12-28T10:06:30;10.00;;;1.70;;
26335;SDS011;14047;50.936;4.654;2023-12-28T10:08:56;15.07;;;2.47;;
26335;SDS011;14047;50.936;4.654;2023-12-28T10:11:22;15.40;;;2.20;;
26335;SDS011;14047;50.936;4.654;2023-12-28T10:13:50;13.50;;;3.15;;
26335;SDS011;14047;50.936;4.654;2023-12-28T10:16:16;10.27;;;1.73;;
26335;SDS011;14047;50.936;4.654;2023-12-28T10:18:43;10.68;;;2.33;;
26335;SDS011;14047;50.936;4.654;2023-12-28T10:21:09;14.70;;;2.25;;
26335;SDS011;14047;50.936;4.654;2023-12-28T10:23:35;10.25;;;1.75;;
26335;SDS011;14047;50.936;4.654;2023-12-28T10:26:02;10.50;;;1.75;;
26335;SDS011;14047;50.936;4.654;2023-12-28T10:28:34;8.90;;;2.00;;
26335;SDS011;14047;50.936;4.654;2023-12-28T10:31:02;11.88;;;2.00;;
26335;SDS011;14047;50.936;4.654;2023-12-28T10:33:33;11.43;;;1.67;;
26335;SDS011;14047;50.936;4.654;2023-12-28T10:36:01;15.88;;;2.17;;
26335;SDS011;14047;50.936;4.654;2023-12-28T10:38:35;13.63;;;2.15;;
26335;SDS011;14047;50.936;4.654;2023-12-28T10:41:03;12.85;;;1.67;;
26335;SDS011;14047;50.936;4.654;2023-12-28T10:43:38;12.48;;;2.22;;
26335;SDS011;14047;50.936;4.654;2023-12-28T10:46:14;11.75;;;2.15;;
26335;SDS011;14047;50.936;4.654;2023-12-28T10:48:53;14.93;;;2.40;;
26335;SDS011;14047;50.936;4.654;2023-12-28T10:51:25;12.88;;;1.80;;
26335;SDS011;14047;50.936;4.654;2023-12-28T10:56:36;13.38;;;2.33;;
26335;SDS011;14047;50.936;4.654;2023-12-28T11:02:03;14.90;;;2.33;;
26335;SDS011;14047;50.936;4.654;2023-12-28T11:04:34;12.93;;;2.15;;
26335;SDS011;14047;50.936;4.654;2023-12-28T11:07:09;10.35;;;0.98;;
26335;SDS011;14047;50.936;4.654;2023-12-28T11:09:38;18.25;;;2.10;;
26335;SDS011;14047;50.936;4.654;2023-12-28T11:12:07;13.75;;;1.88;;
26335;SDS011;14047;50.936;4.654;2023-12-28T11:14:36;10.20;;;1.60;;
26335;SDS011;14047;50.936;4.654;2023-12-28T11:17:10;19.77;;;2.40;;
26335;SDS011;14047;50.936;4.654;2023-12-28T11:19:36;12.43;;;2.20;;
26335;SDS011;14047;50.936;4.654;2023-12-28T11:22:04;10.25;;;1.67;;
26335;SDS011;14047;50.936;4.654;2023-12-28T11:24:30;11.30;;;1.88;;
26335;SDS011;14047;50.936;4.654;2023-12-28T11:26:57;24.95;;;2.15;;
26335;SDS011;14047;50.936;4.654;2023-12-28T11:29:24;13.48;;;1.73;;
26335;SDS011;14047;50.936;4.654;2023-12-28T11:31:50;13.50;;;1.92;;
26335;SDS011;14047;50.936;4.654;2023-12-28T11:34:17;8.95;;;1.50;;
26335;SDS011;14047;50.936;4.654;2023-12-28T11:36:49;13.20;;;1.70;;
26335;SDS011;14047;50.936;4.654;2023-12-28T11:42:00;11.40;;;1.70;;
26335;SDS011;14047;50.936;4.654;2023-12-28T11:44:28;11.43;;;2.20;;
26335;SDS011;14047;50.936;4.654;2023-12-28T11:46:55;9.57;;;1.73;;
26335;SDS011;14047;50.936;4.654;2023-12-28T11:49:25;18.27;;;1.88;;
26335;SDS011;14047;50.936;4.654;2023-12-28T11:51:55;12.02;;;2.03;;
26335;SDS011;14047;50.936;4.654;2023-12-28T11:54:24;10.05;;;2.38;;
26335;SDS011;14047;50.936;4.654;2023-12-28T11:56:51;20.65;;;2.42;;
26335;SDS011;14047;50.936;4.654;2023-12-28T11:59:18;20.83;;;2.80;;
26335;SDS011;14047;50.936;4.654;2023-12-28T12:01:49;16.23;;;2.22;;
26335;SDS011;14047;50.936;4.654;2023-12-28T12:04:17;12.02;;;2.20;;
26335;SDS011;14047;50.936;4.654;2023-12-28T12:06:44;13.27;;;2.30;;
26335;SDS011;14047;50.936;4.654;2023-12-28T12:09:12;13.13;;;2.38;;
26335;SDS011;14047;50.936;4.654;2023-12-28T12:11:38;14.85;;;2.22;;
26335;SDS011;14047;50.936;4.654;2023-12-28T12:14:08;8.38;;;1.88;;
26335;SDS011;14047;50.936;4.654;2023-12-28T12:16:36;11.65;;;2.00;;
26335;SDS011;14047;50.936;4.654;2023-12-28T12:19:06;13.70;;;1.65;;
26335;SDS011;14047;50.936;4.654;2023-12-28T12:21:33;9.80;;;2.35;;
26335;SDS011;14047;50.936;4.654;2023-12-28T12:23:59;11.23;;;2.08;;
26335;SDS011;14047;50.936;4.654;2023-12-28T12:26:29;13.40;;;2.10;;
26335;SDS011;14047;50.936;4.654;2023-12-28T12:28:56;15.50;;;2.00;;
26335;SDS011;14047;50.936;4.654;2023-12-28T12:31:23;20.95;;;2.30;;
26335;SDS011;14047;50.936;4.654;2023-12-28T12:33:51;12.63;;;1.88;;
26335;SDS011;14047;50.936;4.654;2023-12-28T12:36:17;11.55;;;1.80;;
26335;SDS011;14047;50.936;4.654;2023-12-28T12:38:43;18.85;;;2.65;;
26335;SDS011;14047;50.936;4.654;2023-12-28T12:41:12;14.98;;;1.83;;
26335;SDS011;14047;50.936;4.654;2023-12-28T12:43:39;13.90;;;2.47;;
26335;SDS011;14047;50.936;4.654;2023-12-28T12:46:06;15.00;;;2.03;;
26335;SDS011;14047;50.936;4.654;2023-12-28T12:48:32;16.40;;;2.33;;
26335;SDS011;14047;50.936;4.654;2023-12-28T12:51:01;13.45;;;2.42;;
26335;SDS011;14047;50.936;4.654;2023-12-28T12:53:35;9.65;;;1.75;;
26335;SDS011;14047;50.936;4.654;2023-12-28T12:56:03;10.30;;;1.58;;
26335;SDS011;14047;50.936;4.654;2023-12-28T12:58:30;11.80;;;1.85;;
26335;SDS011;14047;50.936;4.654;2023-12-28T13:00:56;17.30;;;2.35;;
26335;SDS011;14047;50.936;4.654;2023-12-28T13:03:27;14.50;;;2.60;;
26335;SDS011;14047;50.936;4.654;2023-12-28T13:05:54;15.68;;;2.38;;
26335;SDS011;14047;50.936;4.654;2023-12-28T13:08:21;13.45;;;2.17;;
26335;SDS011;14047;50.936;4.654;2023-12-28T13:10:48;14.05;;;2.13;;
26335;SDS011;14047;50.936;4.654;2023-12-28T13:13:15;14.73;;;2.40;;
26335;SDS011;14047;50.936;4.654;2023-12-28T13:15:41;8.77;;;1.80;;
26335;SDS011;14047;50.936;4.654;2023-12-28T13:18:07;13.10;;;2.08;;
26335;SDS011;14047;50.936;4.654;2023-12-28T13:20:33;12.00;;;1.45;;
26335;SDS011;14047;50.936;4.654;2023-12-28T13:22:59;10.88;;;1.73;;
26335;SDS011;14047;50.936;4.654;2023-12-28T13:25:25;10.57;;;1.98;;
26335;SDS011;14047;50.936;4.654;2023-12-28T13:27:50;13.63;;;1.70;;
26335;SDS011;14047;50.936;4.654;2023-12-28T13:30:16;15.35;;;2.08;;
26335;SDS011;14047;50.936;4.654;2023-12-28T13:32:42;7.25;;;1.35;;
26335;SDS011;14047;50.936;4.654;2023-12-28T13:35:08;14.85;;;1.90;;
26335;SDS011;14047;50.936;4.654;2023-12-28T13:37:34;9.90;;;2.05;;
26335;SDS011;14047;50.936;4.654;2023-12-28T13:40:00;10.30;;;1.73;;
26335;SDS011;14047;50.936;4.654;2023-12-28T13:42:26;13.60;;;1.73;;
26335;SDS011;14047;50.936;4.654;2023-12-28T13:44:52;9.23;;;2.38;;
26335;SDS011;14047;50.936;4.654;2023-12-28T13:47:18;11.52;;;1.90;;
26335;SDS011;14047;50.936;4.654;2023-12-28T13:49:44;7.97;;;1.60;;
26335;SDS011;14047;50.936;4.654;2023-12-28T13:52:10;15.73;;;2.03;;
26335;SDS011;14047;50.936;4.654;2023-12-28T13:54:35;13.10;;;1.50;;
26335;SDS011;14047;50.936;4.654;2023-12-28T13:57:01;18.65;;;2.45;;
26335;SDS011;14047;50.936;4.654;2023-12-28T13:59:27;11.68;;;1.45;;
26335;SDS011;14047;50.936;4.654;2023-12-28T14:01:53;10.95;;;1.67;;
26335;SDS011;14047;50.936;4.654;2023-12-28T14:04:19;12.88;;;2.38;;
26335;SDS011;14047;50.936;4.654;2023-12-28T14:06:45;12.55;;;2.25;;
26335;SDS011;14047;50.936;4.654;2023-12-28T14:09:11;10.60;;;1.60;;
26335;SDS011;14047;50.936;4.654;2023-12-28T14:11:37;10.02;;;1.63;;
26335;SDS011;14047;50.936;4.654;2023-12-28T14:14:04;9.23;;;2.13;;
26335;SDS011;14047;50.936;4.654;2023-12-28T14:16:29;10.63;;;2.00;;
26335;SDS011;14047;50.936;4.654;2023-12-28T14:18:55;10.50;;;1.63;;
26335;SDS011;14047;50.936;4.654;2023-12-28T14:21:21;10.60;;;1.58;;
26335;SDS011;14047;50.936;4.654;2023-12-28T14:23:47;15.70;;;2.83;;
26335;SDS011;14047;50.936;4.654;2023-12-28T14:26:15;10.55;;;2.28;;
26335;SDS011;14047;50.936;4.654;2023-12-28T14:28:41;9.77;;;2.28;;
26335;SDS011;14047;50.936;4.654;2023-12-28T14:31:11;7.10;;;0.98;;
26335;SDS011;14047;50.936;4.654;2023-12-28T14:33:38;13.18;;;2.00;;
26335;SDS011;14047;50.936;4.654;2023-12-28T14:36:15;11.73;;;1.98;;
26335;SDS011;14047;50.936;4.654;2023-12-28T14:39:06;7.75;;;1.65;;
26335;SDS011;14047;50.936;4.654;2023-12-28T14:41:33;12.55;;;1.70;;
26335;SDS011;14047;50.936;4.654;2023-12-28T14:44:00;12.27;;;2.05;;
26335;SDS011;14047;50.936;4.654;2023-12-28T14:46:26;6.43;;;1.80;;
26335;SDS011;14047;50.936;4.654;2023-12-28T14:48:52;10.20;;;1.63;;
26335;SDS011;14047;50.936;4.654;2023-12-28T14:51:19;14.55;;;2.05;;
26335;SDS011;14047;50.936;4.654;2023-12-28T14:53:45;12.90;;;1.67;;